sensor_id;sensor_type;location;lat;lon;timestamp;temperature;humidity
75170;SHT31;63749;49.186;9.222;2023-07-20T00:02:05;19.59;60.59
75170;SHT31;63749;49.186;9.222;2023-07-20T00:04:32;19.52;60.84
75170;SHT31;63749;49.186;9.222;2023-07-20T00:06:58;19.45;61.18
75170;SHT31;63749;49.186;9.222;2023-07-20T00:09:25;19.40;61.25
75170;SHT31;63749;49.186;9.222;2023-07-20T00:11:52;19.35;61.46
75170;SHT31;63749;49.186;9.222;2023-07-20T00:14:17;19.35;61.52
75170;SHT31;63749;49.186;9.222;2023-07-20T00:16:43;19.29;61.32
75170;SHT31;63749;49.186;9.222;2023-07-20T00:19:09;19.19;61.69
75170;SHT31;63749;49.186;9.222;2023-07-20T00:21:35;19.12;61.99
75170;SHT31;63749;49.186;9.222;2023-07-20T00:24:00;19.05;62.03
75170;SHT31;63749;49.186;9.222;2023-07-20T00:26:26;19.05;62.22
75170;SHT31;63749;49.186;9.222;2023-07-20T00:28:51;19.01;62.01
75170;SHT31;63749;49.186;9.222;2023-07-20T00:31:17;18.94;61.89
75170;SHT31;63749;49.186;9.222;2023-07-20T00:33:42;18.89;61.77
75170;SHT31;63749;49.186;9.222;2023-07-20T00:36:08;18.87;61.67
75170;SHT31;63749;49.186;9.222;2023-07-20T00:38:33;18.87;61.69
75170;SHT31;63749;49.186;9.222;2023-07-20T00:40:58;18.78;61.81
75170;SHT31;63749;49.186;9.222;2023-07-20T00:43:24;18.67;61.89
75170;SHT31;63749;49.186;9.222;2023-07-20T00:45:49;18.65;61.91
75170;SHT31;63749;49.186;9.222;2023-07-20T00:48:15;18.60;61.77
75170;SHT31;63749;49.186;9.222;2023-07-20T00:50:40;18.54;62.22
75170;SHT31;63749;49.186;9.222;2023-07-20T00:53:07;18.53;62.28
75170;SHT31;63749;49.186;9.222;2023-07-20T00:55:32;18.53;62.35
75170;SHT31;63749;49.186;9.222;2023-07-20T00:57:59;18.44;62.67
75170;SHT31;63749;49.186;9.222;2023-07-20T01:00:24;18.47;62.44
75170;SHT31;63749;49.186;9.222;2023-07-20T01:02:51;18.47;62.45
75170;SHT31;63749;49.186;9.222;2023-07-20T01:05:16;18.41;62.73
75170;SHT31;63749;49.186;9.222;2023-07-20T01:07:46;18.36;62.88
75170;SHT31;63749;49.186;9.222;2023-07-20T01:10:22;18.26;63.21
75170;SHT31;63749;49.186;9.222;2023-07-20T01:12:52;18.25;63.42
75170;SHT31;63749;49.186;9.222;2023-07-20T01:15:17;18.25;63.25
75170;SHT31;63749;49.186;9.222;2023-07-20T01:17:43;18.17;63.46
75170;SHT31;63749;49.186;9.222;2023-07-20T01:20:14;18.08;63.94
75170;SHT31;63749;49.186;9.222;2023-07-20T01:23:07;18.12;63.90
75170;SHT31;63749;49.186;9.222;2023-07-20T01:28:48;18.05;64.45
75170;SHT31;63749;49.186;9.222;2023-07-20T01:31:28;17.98;64.66
75170;SHT31;63749;49.186;9.222;2023-07-20T01:33:57;17.86;65.20
75170;SHT31;63749;49.186;9.222;2023-07-20T01:36:24;17.82;65.28
75170;SHT31;63749;49.186;9.222;2023-07-20T01:38:51;17.74;65.53
75170;SHT31;63749;49.186;9.222;2023-07-20T01:41:18;17.75;65.71
75170;SHT31;63749;49.186;9.222;2023-07-20T01:43:44;17.69;65.85
75170;SHT31;63749;49.186;9.222;2023-07-20T01:46:09;17.71;66.04
75170;SHT31;63749;49.186;9.222;2023-07-20T01:48:35;17.67;66.07
75170;SHT31;63749;49.186;9.222;2023-07-20T01:51:00;17.64;66.45
75170;SHT31;63749;49.186;9.222;2023-07-20T01:53:25;17.52;67.05
75170;SHT31;63749;49.186;9.222;2023-07-20T01:55:56;17.52;66.76
75170;SHT31;63749;49.186;9.222;2023-07-20T01:58:21;17.52;66.78
75170;SHT31;63749;49.186;9.222;2023-07-20T02:00:46;17.55;66.63
75170;SHT31;63749;49.186;9.222;2023-07-20T02:03:12;17.45;67.27
75170;SHT31;63749;49.186;9.222;2023-07-20T02:05:38;17.47;66.96
75170;SHT31;63749;49.186;9.222;2023-07-20T02:08:03;17.41;67.32
75170;SHT31;63749;49.186;9.222;2023-07-20T02:10:29;17.37;67.45
75170;SHT31;63749;49.186;9.222;2023-07-20T02:12:54;17.20;67.90
75170;SHT31;63749;49.186;9.222;2023-07-20T02:15:19;17.21;67.85
75170;SHT31;63749;49.186;9.222;2023-07-20T02:17:46;17.20;68.12
75170;SHT31;63749;49.186;9.222;2023-07-20T02:20:11;17.17;68.42
75170;SHT31;63749;49.186;9.222;2023-07-20T02:22:37;17.09;68.54
75170;SHT31;63749;49.186;9.222;2023-07-20T02:25:04;17.02;68.85
75170;SHT31;63749;49.186;9.222;2023-07-20T02:27:30;16.99;68.92
75170;SHT31;63749;49.186;9.222;2023-07-20T02:29:56;17.04;68.87
75170;SHT31;63749;49.186;9.222;2023-07-20T02:32:21;17.02;68.91
75170;SHT31;63749;49.186;9.222;2023-07-20T02:34:47;16.92;69.32
75170;SHT31;63749;49.186;9.222;2023-07-20T02:37:12;16.86;69.33
75170;SHT31;63749;49.186;9.222;2023-07-20T02:39:39;16.84;69.61
75170;SHT31;63749;49.186;9.222;2023-07-20T02:42:04;16.83;69.19
75170;SHT31;63749;49.186;9.222;2023-07-20T02:44:30;16.80;69.57
75170;SHT31;63749;49.186;9.222;2023-07-20T02:46:55;16.79;69.61
75170;SHT31;63749;49.186;9.222;2023-07-20T02:49:21;16.77;69.72
75170;SHT31;63749;49.186;9.222;2023-07-20T02:51:46;16.71;69.90
75170;SHT31;63749;49.186;9.222;2023-07-20T02:54:11;16.63;70.33
75170;SHT31;63749;49.186;9.222;2023-07-20T02:56:37;16.63;70.12
75170;SHT31;63749;49.186;9.222;2023-07-20T02:59:03;16.59;70.39
75170;SHT31;63749;49.186;9.222;2023-07-20T03:01:29;16.45;71.18
75170;SHT31;63749;49.186;9.222;2023-07-20T03:03:55;16.41;71.15
75170;SHT31;63749;49.186;9.222;2023-07-20T03:06:21;16.40;71.27
75170;SHT31;63749;49.186;9.222;2023-07-20T03:08:46;16.22;72.02
75170;SHT31;63749;49.186;9.222;2023-07-20T03:11:17;16.13;72.43
75170;SHT31;63749;49.186;9.222;2023-07-20T03:13:44;16.08;72.55
75170;SHT31;63749;49.186;9.222;2023-07-20T03:16:11;16.05;72.74
75170;SHT31;63749;49.186;9.222;2023-07-20T03:18:38;16.03;72.81
75170;SHT31;63749;49.186;9.222;2023-07-20T03:21:04;15.94;73.08
75170;SHT31;63749;49.186;9.222;2023-07-20T03:23:30;15.91;73.16
75170;SHT31;63749;49.186;9.222;2023-07-20T03:25:55;15.90;73.08
75170;SHT31;63749;49.186;9.222;2023-07-20T03:28:21;15.86;73.45
75170;SHT31;63749;49.186;9.222;2023-07-20T03:30:46;15.74;73.65
75170;SHT31;63749;49.186;9.222;2023-07-20T03:33:11;15.70;74.34
75170;SHT31;63749;49.186;9.222;2023-07-20T03:35:37;15.56;74.09
75170;SHT31;63749;49.186;9.222;2023-07-20T03:38:02;15.54;74.43
75170;SHT31;63749;49.186;9.222;2023-07-20T03:40:28;15.54;74.56
75170;SHT31;63749;49.186;9.222;2023-07-20T03:42:53;15.49;74.63
75170;SHT31;63749;49.186;9.222;2023-07-20T03:45:19;15.42;75.04
75170;SHT31;63749;49.186;9.222;2023-07-20T03:47:45;15.35;75.76
75170;SHT31;63749;49.186;9.222;2023-07-20T03:50:12;15.31;76.01
75170;SHT31;63749;49.186;9.222;2023-07-20T03:52:37;15.21;76.60
75170;SHT31;63749;49.186;9.222;2023-07-20T03:55:03;15.12;77.15
75170;SHT31;63749;49.186;9.222;2023-07-20T03:57:28;15.15;76.93
75170;SHT31;63749;49.186;9.222;2023-07-20T03:59:53;15.09;77.37
75170;SHT31;63749;49.186;9.222;2023-07-20T04:02:20;15.12;77.17
75170;SHT31;63749;49.186;9.222;2023-07-20T04:04:45;15.16;77.12
75170;SHT31;63749;49.186;9.222;2023-07-20T04:07:11;15.14;77.31
75170;SHT31;63749;49.186;9.222;2023-07-20T04:09:36;15.11;77.43
75170;SHT31;63749;49.186;9.222;2023-07-20T04:12:01;15.09;77.87
75170;SHT31;63749;49.186;9.222;2023-07-20T04:14:27;15.04;78.11
75170;SHT31;63749;49.186;9.222;2023-07-20T04:16:52;15.02;77.99
75170;SHT31;63749;49.186;9.222;2023-07-20T04:19:18;15.05;78.01
75170;SHT31;63749;49.186;9.222;2023-07-20T04:21:43;15.12;77.71
75170;SHT31;63749;49.186;9.222;2023-07-20T04:24:09;15.16;77.48
75170;SHT31;63749;49.186;9.222;2023-07-20T04:26:34;15.26;77.31
75170;SHT31;63749;49.186;9.222;2023-07-20T04:29:00;15.22;77.51
75170;SHT31;63749;49.186;9.222;2023-07-20T04:31:26;15.19;77.60
75170;SHT31;63749;49.186;9.222;2023-07-20T04:33:51;15.26;78.07
75170;SHT31;63749;49.186;9.222;2023-07-20T04:36:16;15.29;77.49
75170;SHT31;63749;49.186;9.222;2023-07-20T04:38:47;15.36;77.38
75170;SHT31;63749;49.186;9.222;2023-07-20T04:41:13;15.42;77.38
75170;SHT31;63749;49.186;9.222;2023-07-20T04:43:44;15.45;77.04
75170;SHT31;63749;49.186;9.222;2023-07-20T04:46:10;15.46;77.01
75170;SHT31;63749;49.186;9.222;2023-07-20T04:48:35;15.62;76.31
75170;SHT31;63749;49.186;9.222;2023-07-20T04:51:01;15.71;75.97
75170;SHT31;63749;49.186;9.222;2023-07-20T04:53:26;16.17;75.51
75170;SHT31;63749;49.186;9.222;2023-07-20T04:55:51;16.42;73.80
75170;SHT31;63749;49.186;9.222;2023-07-20T04:58:18;16.55;72.42
75170;SHT31;63749;49.186;9.222;2023-07-20T05:00:44;16.69;72.18
75170;SHT31;63749;49.186;9.222;2023-07-20T05:03:09;16.77;71.58
75170;SHT31;63749;49.186;9.222;2023-07-20T05:05:34;16.92;72.44
75170;SHT31;63749;49.186;9.222;2023-07-20T05:08:00;17.09;71.08
75170;SHT31;63749;49.186;9.222;2023-07-20T05:10:25;17.32;70.34
75170;SHT31;63749;49.186;9.222;2023-07-20T05:12:50;17.31;70.64
75170;SHT31;63749;49.186;9.222;2023-07-20T05:15:16;17.20;70.34
75170;SHT31;63749;49.186;9.222;2023-07-20T05:17:41;17.28;70.29
75170;SHT31;63749;49.186;9.222;2023-07-20T05:20:07;17.38;70.18
75170;SHT31;63749;49.186;9.222;2023-07-20T05:22:35;17.42;69.80
75170;SHT31;63749;49.186;9.222;2023-07-20T05:25:00;17.51;69.58
75170;SHT31;63749;49.186;9.222;2023-07-20T05:27:26;17.78;68.52
75170;SHT31;63749;49.186;9.222;2023-07-20T05:29:51;18.08;68.05
75170;SHT31;63749;49.186;9.222;2023-07-20T05:32:16;17.93;67.25
75170;SHT31;63749;49.186;9.222;2023-07-20T05:34:42;17.95;66.95
75170;SHT31;63749;49.186;9.222;2023-07-20T05:37:07;17.99;66.95
75170;SHT31;63749;49.186;9.222;2023-07-20T05:39:32;18.05;67.05
75170;SHT31;63749;49.186;9.222;2023-07-20T05:41:58;18.26;66.70
75170;SHT31;63749;49.186;9.222;2023-07-20T05:44:23;18.50;66.71
75170;SHT31;63749;49.186;9.222;2023-07-20T05:46:49;18.57;65.81
75170;SHT31;63749;49.186;9.222;2023-07-20T05:49:14;18.64;65.17
75170;SHT31;63749;49.186;9.222;2023-07-20T05:51:39;18.60;65.45
75170;SHT31;63749;49.186;9.222;2023-07-20T05:54:05;18.64;64.98
75170;SHT31;63749;49.186;9.222;2023-07-20T05:56:30;18.78;64.95
75170;SHT31;63749;49.186;9.222;2023-07-20T05:58:55;18.94;64.45
75170;SHT31;63749;49.186;9.222;2023-07-20T06:01:21;18.98;64.61
75170;SHT31;63749;49.186;9.222;2023-07-20T06:03:46;19.23;63.90
75170;SHT31;63749;49.186;9.222;2023-07-20T06:06:11;19.33;63.50
75170;SHT31;63749;49.186;9.222;2023-07-20T06:08:38;19.36;63.27
75170;SHT31;63749;49.186;9.222;2023-07-20T06:11:03;19.46;63.22
75170;SHT31;63749;49.186;9.222;2023-07-20T06:13:28;19.60;63.11
75170;SHT31;63749;49.186;9.222;2023-07-20T06:15:54;19.71;63.06
75170;SHT31;63749;49.186;9.222;2023-07-20T06:18:22;19.88;63.12
75170;SHT31;63749;49.186;9.222;2023-07-20T06:20:51;20.03;61.82
75170;SHT31;63749;49.186;9.222;2023-07-20T06:23:20;20.03;60.86
75170;SHT31;63749;49.186;9.222;2023-07-20T06:25:46;20.11;61.00
75170;SHT31;63749;49.186;9.222;2023-07-20T06:28:11;20.20;60.71
75170;SHT31;63749;49.186;9.222;2023-07-20T06:30:37;20.13;60.30
75170;SHT31;63749;49.186;9.222;2023-07-20T06:33:02;20.25;60.51
75170;SHT31;63749;49.186;9.222;2023-07-20T06:35:28;20.37;60.27
75170;SHT31;63749;49.186;9.222;2023-07-20T06:37:53;20.44;60.67
75170;SHT31;63749;49.186;9.222;2023-07-20T06:40:18;20.51;59.79
75170;SHT31;63749;49.186;9.222;2023-07-20T06:42:44;20.66;59.47
75170;SHT31;63749;49.186;9.222;2023-07-20T06:45:09;20.71;58.98
75170;SHT31;63749;49.186;9.222;2023-07-20T06:47:38;20.75;59.15
75170;SHT31;63749;49.186;9.222;2023-07-20T06:50:08;20.87;59.04
75170;SHT31;63749;49.186;9.222;2023-07-20T06:52:34;20.95;58.81
75170;SHT31;63749;49.186;9.222;2023-07-20T06:54:59;21.07;57.60
75170;SHT31;63749;49.186;9.222;2023-07-20T06:57:25;21.20;57.20
75170;SHT31;63749;49.186;9.222;2023-07-20T06:59:50;21.03;57.82
75170;SHT31;63749;49.186;9.222;2023-07-20T07:02:16;20.97;58.50
75170;SHT31;63749;49.186;9.222;2023-07-20T07:04:42;21.19;57.50
75170;SHT31;63749;49.186;9.222;2023-07-20T07:07:07;21.28;56.82
75170;SHT31;63749;49.186;9.222;2023-07-20T07:09:32;21.41;57.20
75170;SHT31;63749;49.186;9.222;2023-07-20T07:11:58;21.51;57.14
75170;SHT31;63749;49.186;9.222;2023-07-20T07:14:23;21.57;56.48
75170;SHT31;63749;49.186;9.222;2023-07-20T07:16:49;21.62;56.31
75170;SHT31;63749;49.186;9.222;2023-07-20T07:19:14;21.71;55.63
75170;SHT31;63749;49.186;9.222;2023-07-20T07:21:39;21.77;55.68
75170;SHT31;63749;49.186;9.222;2023-07-20T07:24:05;21.54;55.69
75170;SHT31;63749;49.186;9.222;2023-07-20T07:26:32;21.66;55.22
75170;SHT31;63749;49.186;9.222;2023-07-20T07:28:58;21.96;55.33
75170;SHT31;63749;49.186;9.222;2023-07-20T07:31:25;22.13;55.31
75170;SHT31;63749;49.186;9.222;2023-07-20T07:33:50;22.16;56.07
75170;SHT31;63749;49.186;9.222;2023-07-20T07:36:15;22.03;55.55
75170;SHT31;63749;49.186;9.222;2023-07-20T07:38:41;21.75;55.90
75170;SHT31;63749;49.186;9.222;2023-07-20T07:41:06;21.86;55.36
75170;SHT31;63749;49.186;9.222;2023-07-20T07:43:32;22.19;54.43
75170;SHT31;63749;49.186;9.222;2023-07-20T07:45:58;22.03;55.03
75170;SHT31;63749;49.186;9.222;2023-07-20T07:48:23;22.36;54.62
75170;SHT31;63749;49.186;9.222;2023-07-20T07:50:50;22.63;54.13
75170;SHT31;63749;49.186;9.222;2023-07-20T07:53:16;22.80;53.32
75170;SHT31;63749;49.186;9.222;2023-07-20T07:55:41;22.46;53.70
75170;SHT31;63749;49.186;9.222;2023-07-20T07:58:06;22.53;53.78
75170;SHT31;63749;49.186;9.222;2023-07-20T08:00:32;22.44;53.45
75170;SHT31;63749;49.186;9.222;2023-07-20T08:02:57;22.35;54.22
75170;SHT31;63749;49.186;9.222;2023-07-20T08:05:23;22.33;53.84
75170;SHT31;63749;49.186;9.222;2023-07-20T08:07:49;22.08;54.43
75170;SHT31;63749;49.186;9.222;2023-07-20T08:10:14;21.99;54.12
75170;SHT31;63749;49.186;9.222;2023-07-20T08:12:39;21.89;54.38
75170;SHT31;63749;49.186;9.222;2023-07-20T08:15:05;22.08;54.40
75170;SHT31;63749;49.186;9.222;2023-07-20T08:17:31;22.54;52.93
75170;SHT31;63749;49.186;9.222;2023-07-20T08:19:56;22.52;52.90
75170;SHT31;63749;49.186;9.222;2023-07-20T08:22:21;22.36;53.22
75170;SHT31;63749;49.186;9.222;2023-07-20T08:24:47;22.63;52.96
75170;SHT31;63749;49.186;9.222;2023-07-20T08:27:12;23.04;52.72
75170;SHT31;63749;49.186;9.222;2023-07-20T08:29:38;23.18;51.45
75170;SHT31;63749;49.186;9.222;2023-07-20T08:32:04;22.94;52.37
75170;SHT31;63749;49.186;9.222;2023-07-20T08:34:30;23.11;52.22
75170;SHT31;63749;49.186;9.222;2023-07-20T08:36:57;23.31;50.38
75170;SHT31;63749;49.186;9.222;2023-07-20T08:39:23;23.28;50.47
75170;SHT31;63749;49.186;9.222;2023-07-20T08:41:49;23.67;50.73
75170;SHT31;63749;49.186;9.222;2023-07-20T08:44:14;23.49;49.83
75170;SHT31;63749;49.186;9.222;2023-07-20T08:46:40;23.74;49.40
75170;SHT31;63749;49.186;9.222;2023-07-20T08:49:06;23.83;49.65
75170;SHT31;63749;49.186;9.222;2023-07-20T08:51:33;23.46;50.13
75170;SHT31;63749;49.186;9.222;2023-07-20T08:54:00;23.12;50.53
75170;SHT31;63749;49.186;9.222;2023-07-20T08:56:26;22.70;50.88
75170;SHT31;63749;49.186;9.222;2023-07-20T08:58:53;22.74;51.27
75170;SHT31;63749;49.186;9.222;2023-07-20T09:01:19;22.83;50.93
75170;SHT31;63749;49.186;9.222;2023-07-20T09:03:45;23.23;49.32
75170;SHT31;63749;49.186;9.222;2023-07-20T09:06:12;23.11;50.27
75170;SHT31;63749;49.186;9.222;2023-07-20T09:08:38;23.37;49.43
75170;SHT31;63749;49.186;9.222;2023-07-20T09:11:04;23.25;49.13
75170;SHT31;63749;49.186;9.222;2023-07-20T09:13:29;23.50;46.76
75170;SHT31;63749;49.186;9.222;2023-07-20T09:15:54;23.71;46.40
75170;SHT31;63749;49.186;9.222;2023-07-20T09:18:27;23.96;44.69
75170;SHT31;63749;49.186;9.222;2023-07-20T09:20:53;24.11;45.66
75170;SHT31;63749;49.186;9.222;2023-07-20T09:23:30;24.21;45.47
75170;SHT31;63749;49.186;9.222;2023-07-20T09:25:57;24.18;45.96
75170;SHT31;63749;49.186;9.222;2023-07-20T09:28:22;24.17;46.12
75170;SHT31;63749;49.186;9.222;2023-07-20T09:30:48;23.66;48.08
75170;SHT31;63749;49.186;9.222;2023-07-20T09:33:21;23.90;47.34
75170;SHT31;63749;49.186;9.222;2023-07-20T09:35:47;23.92;47.10
75170;SHT31;63749;49.186;9.222;2023-07-20T09:38:14;23.73;45.62
75170;SHT31;63749;49.186;9.222;2023-07-20T09:40:40;23.74;44.96
75170;SHT31;63749;49.186;9.222;2023-07-20T09:43:10;23.94;44.95
75170;SHT31;63749;49.186;9.222;2023-07-20T09:45:39;24.21;45.70
75170;SHT31;63749;49.186;9.222;2023-07-20T09:48:06;24.22;45.66
75170;SHT31;63749;49.186;9.222;2023-07-20T09:50:32;24.31;44.96
75170;SHT31;63749;49.186;9.222;2023-07-20T09:52:58;24.38;45.64
75170;SHT31;63749;49.186;9.222;2023-07-20T09:55:26;23.92;46.09
75170;SHT31;63749;49.186;9.222;2023-07-20T09:57:52;24.04;46.54
75170;SHT31;63749;49.186;9.222;2023-07-20T10:00:18;24.18;45.56
75170;SHT31;63749;49.186;9.222;2023-07-20T10:02:45;24.37;45.58
75170;SHT31;63749;49.186;9.222;2023-07-20T10:05:13;24.47;43.39
75170;SHT31;63749;49.186;9.222;2023-07-20T10:07:50;24.44;42.48
75170;SHT31;63749;49.186;9.222;2023-07-20T10:10:17;24.25;42.61
75170;SHT31;63749;49.186;9.222;2023-07-20T10:12:44;24.57;43.50
75170;SHT31;63749;49.186;9.222;2023-07-20T10:15:18;24.65;42.52
75170;SHT31;63749;49.186;9.222;2023-07-20T10:18:38;24.85;44.64
75170;SHT31;63749;49.186;9.222;2023-07-20T10:20:56;25.02;44.36
75170;SHT31;63749;49.186;9.222;2023-07-20T10:23:24;24.28;44.83
75170;SHT31;63749;49.186;9.222;2023-07-20T10:25:50;23.83;44.91
75170;SHT31;63749;49.186;9.222;2023-07-20T10:28:16;24.25;43.71
75170;SHT31;63749;49.186;9.222;2023-07-20T10:30:42;24.48;43.99
75170;SHT31;63749;49.186;9.222;2023-07-20T10:33:08;24.72;43.98
75170;SHT31;63749;49.186;9.222;2023-07-20T10:35:54;24.90;42.05
75170;SHT31;63749;49.186;9.222;2023-07-20T10:38:19;25.00;41.62
75170;SHT31;63749;49.186;9.222;2023-07-20T10:40:54;24.99;42.03
75170;SHT31;63749;49.186;9.222;2023-07-20T10:43:20;25.16;42.04
75170;SHT31;63749;49.186;9.222;2023-07-20T10:45:50;25.23;41.36
75170;SHT31;63749;49.186;9.222;2023-07-20T10:48:24;25.27;41.82
75170;SHT31;63749;49.186;9.222;2023-07-20T10:51:12;25.30;40.48
75170;SHT31;63749;49.186;9.222;2023-07-20T10:53:40;25.27;40.02
75170;SHT31;63749;49.186;9.222;2023-07-20T10:56:11;25.53;39.64
75170;SHT31;63749;49.186;9.222;2023-07-20T10:58:39;25.74;40.52
75170;SHT31;63749;49.186;9.222;2023-07-20T11:01:05;25.94;39.79
75170;SHT31;63749;49.186;9.222;2023-07-20T11:03:40;25.89;39.66
75170;SHT31;63749;49.186;9.222;2023-07-20T11:09:08;26.22;40.36
75170;SHT31;63749;49.186;9.222;2023-07-20T11:11:37;26.26;39.17
75170;SHT31;63749;49.186;9.222;2023-07-20T11:14:05;26.11;38.81
75170;SHT31;63749;49.186;9.222;2023-07-20T11:19:02;26.42;38.50
75170;SHT31;63749;49.186;9.222;2023-07-20T11:21:29;26.21;37.73
75170;SHT31;63749;49.186;9.222;2023-07-20T11:23:55;25.96;37.50
75170;SHT31;63749;49.186;9.222;2023-07-20T11:26:21;26.35;37.65
75170;SHT31;63749;49.186;9.222;2023-07-20T11:28:50;26.21;38.10
75170;SHT31;63749;49.186;9.222;2023-07-20T11:31:17;25.74;39.25
75170;SHT31;63749;49.186;9.222;2023-07-20T11:33:42;25.47;39.73
75170;SHT31;63749;49.186;9.222;2023-07-20T11:36:10;26.05;39.00
75170;SHT31;63749;49.186;9.222;2023-07-20T11:38:36;26.56;37.73
75170;SHT31;63749;49.186;9.222;2023-07-20T11:41:04;26.80;37.23
75170;SHT31;63749;49.186;9.222;2023-07-20T11:43:29;25.96;38.24
75170;SHT31;63749;49.186;9.222;2023-07-20T11:45:55;26.31;37.24
75170;SHT31;63749;49.186;9.222;2023-07-20T11:48:20;26.82;36.51
75170;SHT31;63749;49.186;9.222;2023-07-20T11:50:45;27.11;35.54
75170;SHT31;63749;49.186;9.222;2023-07-20T11:53:12;26.84;35.14
75170;SHT31;63749;49.186;9.222;2023-07-20T11:55:38;26.98;36.00
75170;SHT31;63749;49.186;9.222;2023-07-20T11:58:05;26.86;36.10
75170;SHT31;63749;49.186;9.222;2023-07-20T12:00:32;27.14;35.46
75170;SHT31;63749;49.186;9.222;2023-07-20T12:02:59;27.27;34.59
75170;SHT31;63749;49.186;9.222;2023-07-20T12:05:24;27.32;35.60
75170;SHT31;63749;49.186;9.222;2023-07-20T12:07:51;27.49;35.60
75170;SHT31;63749;49.186;9.222;2023-07-20T12:10:23;27.74;35.98
75170;SHT31;63749;49.186;9.222;2023-07-20T12:12:49;27.74;35.59
75170;SHT31;63749;49.186;9.222;2023-07-20T12:15:21;27.79;35.36
75170;SHT31;63749;49.186;9.222;2023-07-20T12:17:53;27.96;34.82
75170;SHT31;63749;49.186;9.222;2023-07-20T12:20:33;27.69;34.80
75170;SHT31;63749;49.186;9.222;2023-07-20T12:23:02;27.85;34.70
75170;SHT31;63749;49.186;9.222;2023-07-20T12:25:47;28.17;33.81
75170;SHT31;63749;49.186;9.222;2023-07-20T12:28:17;27.48;34.48
75170;SHT31;63749;49.186;9.222;2023-07-20T12:30:45;27.45;34.75
75170;SHT31;63749;49.186;9.222;2023-07-20T12:33:11;27.61;34.17
75170;SHT31;63749;49.186;9.222;2023-07-20T12:35:42;27.85;34.17
75170;SHT31;63749;49.186;9.222;2023-07-20T12:38:10;28.21;34.50
75170;SHT31;63749;49.186;9.222;2023-07-20T12:40:36;27.39;35.12
75170;SHT31;63749;49.186;9.222;2023-07-20T12:43:01;27.85;34.45
75170;SHT31;63749;49.186;9.222;2023-07-20T12:45:27;29.36;32.52
75170;SHT31;63749;49.186;9.222;2023-07-20T12:47:52;29.63;31.38
75170;SHT31;63749;49.186;9.222;2023-07-20T12:50:18;28.33;34.63
75170;SHT31;63749;49.186;9.222;2023-07-20T12:52:43;27.83;35.49
75170;SHT31;63749;49.186;9.222;2023-07-20T12:55:09;29.91;32.65
75170;SHT31;63749;49.186;9.222;2023-07-20T12:57:36;31.04;30.09
75170;SHT31;63749;49.186;9.222;2023-07-20T13:00:03;31.68;29.01
75170;SHT31;63749;49.186;9.222;2023-07-20T13:02:30;32.32;27.96
75170;SHT31;63749;49.186;9.222;2023-07-20T13:04:56;32.91;27.55
75170;SHT31;63749;49.186;9.222;2023-07-20T13:07:30;31.90;27.21
75170;SHT31;63749;49.186;9.222;2023-07-20T13:09:56;32.14;27.18
75170;SHT31;63749;49.186;9.222;2023-07-20T13:12:21;33.19;26.65
75170;SHT31;63749;49.186;9.222;2023-07-20T13:14:46;31.44;28.56
75170;SHT31;63749;49.186;9.222;2023-07-20T13:17:12;30.29;29.87
75170;SHT31;63749;49.186;9.222;2023-07-20T13:19:37;31.96;28.00
75170;SHT31;63749;49.186;9.222;2023-07-20T13:22:02;32.47;27.92
75170;SHT31;63749;49.186;9.222;2023-07-20T13:24:28;33.28;26.38
75170;SHT31;63749;49.186;9.222;2023-07-20T13:26:53;33.83;25.95
75170;SHT31;63749;49.186;9.222;2023-07-20T13:29:19;34.64;24.76
75170;SHT31;63749;49.186;9.222;2023-07-20T13:31:44;34.81;24.65
75170;SHT31;63749;49.186;9.222;2023-07-20T13:34:10;34.71;24.63
75170;SHT31;63749;49.186;9.222;2023-07-20T13:36:35;34.59;25.12
75170;SHT31;63749;49.186;9.222;2023-07-20T13:39:00;34.86;24.85
75170;SHT31;63749;49.186;9.222;2023-07-20T13:41:26;34.65;24.58
75170;SHT31;63749;49.186;9.222;2023-07-20T13:43:51;33.53;25.99
75170;SHT31;63749;49.186;9.222;2023-07-20T13:46:16;33.97;25.70
75170;SHT31;63749;49.186;9.222;2023-07-20T13:48:42;34.61;24.83
75170;SHT31;63749;49.186;9.222;2023-07-20T13:51:07;35.47;24.42
75170;SHT31;63749;49.186;9.222;2023-07-20T13:53:32;35.09;24.40
75170;SHT31;63749;49.186;9.222;2023-07-20T13:55:58;35.53;23.92
75170;SHT31;63749;49.186;9.222;2023-07-20T13:58:25;36.45;22.77
75170;SHT31;63749;49.186;9.222;2023-07-20T14:00:50;36.99;22.36
75170;SHT31;63749;49.186;9.222;2023-07-20T14:03:15;37.67;22.18
75170;SHT31;63749;49.186;9.222;2023-07-20T14:05:41;37.60;21.84
75170;SHT31;63749;49.186;9.222;2023-07-20T14:08:08;37.24;21.84
75170;SHT31;63749;49.186;9.222;2023-07-20T14:10:34;36.31;22.56
75170;SHT31;63749;49.186;9.222;2023-07-20T14:12:59;35.49;23.57
75170;SHT31;63749;49.186;9.222;2023-07-20T14:15:24;36.38;21.98
75170;SHT31;63749;49.186;9.222;2023-07-20T14:17:50;36.68;22.66
75170;SHT31;63749;49.186;9.222;2023-07-20T14:20:15;36.60;23.76
75170;SHT31;63749;49.186;9.222;2023-07-20T14:22:40;37.14;22.13
75170;SHT31;63749;49.186;9.222;2023-07-20T14:25:07;37.30;22.70
75170;SHT31;63749;49.186;9.222;2023-07-20T14:27:32;37.27;21.89
75170;SHT31;63749;49.186;9.222;2023-07-20T14:29:58;35.19;23.93
75170;SHT31;63749;49.186;9.222;2023-07-20T14:32:23;33.29;25.52
75170;SHT31;63749;49.186;9.222;2023-07-20T14:34:49;34.16;25.89
75170;SHT31;63749;49.186;9.222;2023-07-20T14:37:15;36.24;23.58
75170;SHT31;63749;49.186;9.222;2023-07-20T14:39:40;36.90;23.07
75170;SHT31;63749;49.186;9.222;2023-07-20T14:42:06;37.72;21.79
75170;SHT31;63749;49.186;9.222;2023-07-20T14:44:33;38.19;21.05
75170;SHT31;63749;49.186;9.222;2023-07-20T14:46:58;38.17;21.50
75170;SHT31;63749;49.186;9.222;2023-07-20T14:49:25;37.69;21.53
75170;SHT31;63749;49.186;9.222;2023-07-20T14:51:51;37.74;21.79
75170;SHT31;63749;49.186;9.222;2023-07-20T14:54:18;36.84;22.02
75170;SHT31;63749;49.186;9.222;2023-07-20T14:56:50;36.96;21.85
75170;SHT31;63749;49.186;9.222;2023-07-20T14:59:17;36.96;21.84
75170;SHT31;63749;49.186;9.222;2023-07-20T15:01:43;37.24;21.70
75170;SHT31;63749;49.186;9.222;2023-07-20T15:04:10;35.50;23.80
75170;SHT31;63749;49.186;9.222;2023-07-20T15:06:36;33.22;26.17
75170;SHT31;63749;49.186;9.222;2023-07-20T15:09:01;33.14;26.36
75170;SHT31;63749;49.186;9.222;2023-07-20T15:11:26;31.74;27.39
75170;SHT31;63749;49.186;9.222;2023-07-20T15:13:52;30.70;28.30
75170;SHT31;63749;49.186;9.222;2023-07-20T15:16:17;32.47;26.68
75170;SHT31;63749;49.186;9.222;2023-07-20T15:18:42;31.58;27.71
75170;SHT31;63749;49.186;9.222;2023-07-20T15:21:07;30.56;29.45
75170;SHT31;63749;49.186;9.222;2023-07-20T15:23:33;29.88;29.53
75170;SHT31;63749;49.186;9.222;2023-07-20T15:25:58;31.97;27.07
75170;SHT31;63749;49.186;9.222;2023-07-20T15:28:24;34.27;24.76
75170;SHT31;63749;49.186;9.222;2023-07-20T15:30:49;35.34;24.47
75170;SHT31;63749;49.186;9.222;2023-07-20T15:33:16;36.12;23.50
75170;SHT31;63749;49.186;9.222;2023-07-20T15:35:41;36.09;23.42